Main page
METAR-TAF:

METAR-TAF

Airports :

Farnborough, England

Farnborough Airport

latitude: 51-17N, longitude: 000-46W, elevation: 65 m

Current weather observation

The report was made 3 hours and 5 minutes ago, at 20:20 UTC
Wind 9 kt from the South/Southwest
Temperature 16°C
Humidity 94%
Pressure 1012 hPa
Visibility 10 km or more
Few clouds at a height of 2100 ft

METAR: EGLF 172020Z 21009KT 9999 FEW021 16/15 Q1012

Time: 00:25 (23:25 UTC)

Forecast

The report was made 6 hours and 26 minutes ago, at 16:59 UTC
Forecast valid from 17 at 18 UTC to 17 at 21 UTC
Wind 12 kt from the Southwest
Visibility 10 km or more
Scattered clouds at a height of 3500 ft

TAF: EGLF 171659Z 1718/1721 23012KT 9999 SCT035

Weather observations and forecasts of more than 4000 airports (METAR and TAF reports).

The available stations are represented by yellow and red dots on the map.

Hover mouse over dot to see the name of the station.

Then click to see weather observations and forecasts.

To change the map : click on the green buttons with a black cross to zoom in, on the green button with a dash to zoom out, or on the green arrows for adjacent maps.


METAR-TAF: